Time;durP1;ratioP1;P1;durP2;ratioP2;P2;SDS_P1;SDS_P2;PMS_P1;PMS_P2;Temp;Humidity;BMP_temperature;BMP_pressure;BME280_temperature;BME280_humidity;BME280_pressure;Samples;Min_cycle;Max_cycle;Signal;HPM_P1;HPM_P2
2024/01/21 00:00:50;;;;;;;390.55;154.90;;;-5.70;99.90;;;;;;5095785;28;20473;-53
2024/01/21 00:03:16;;;;;;;433.38;172.98;;;-5.70;99.90;;;;;;5095599;28;20062;-53
2024/01/21 00:05:42;;;;;;;356.48;147.43;;;-5.70;99.90;;;;;;5095770;28;20032;-53
2024/01/21 00:08:07;;;;;;;352.08;144.82;;;-5.60;99.90;;;;;;5095547;28;20103;-53
2024/01/21 00:10:34;;;;;;;318.25;134.90;;;-5.70;99.90;;;;;;5095664;28;20050;-53
2024/01/21 00:13:00;;;;;;;333.25;137.82;;;-5.60;99.90;;;;;;5095586;28;20107;-53
2024/01/21 00:15:26;;;;;;;309.10;128.65;;;-5.60;99.90;;;;;;5095671;28;20050;-53
2024/01/21 00:17:52;;;;;;;314.27;129.13;;;-5.60;99.90;;;;;;5095413;28;20443;-53
2024/01/21 00:20:18;;;;;;;315.42;133.25;;;-5.50;99.90;;;;;;5095643;28;20054;-53
2024/01/21 00:22:43;;;;;;;364.17;151.80;;;-5.40;99.90;;;;;;5095372;28;20111;-53
2024/01/21 00:25:09;;;;;;;357.83;148.15;;;-5.50;99.90;;;;;;5095616;28;20103;-53
2024/01/21 00:27:36;;;;;;;361.73;143.07;;;-5.50;99.90;;;;;;5095456;28;20020;-53
2024/01/21 00:30:06;;;;;;;319.83;132.27;;;-5.40;99.90;;;;;;5094177;28;20035;-53
2024/01/21 00:32:32;;;;;;;285.30;121.83;;;-5.40;99.90;;;;;;5095465;28;20032;-53
2024/01/21 00:34:58;;;;;;;281.52;120.45;;;-5.40;99.90;;;;;;5095594;28;20491;-53
2024/01/21 00:37:23;;;;;;;297.95;127.07;;;-5.40;99.90;;;;;;5095287;28;20107;-53
2024/01/21 00:39:49;;;;;;;327.20;139.45;;;-5.40;99.90;;;;;;5098920;28;20024;-53
2024/01/21 00:42:15;;;;;;;354.45;145.30;;;-5.40;99.90;;;;;;5099430;28;20024;-53
2024/01/21 00:44:41;;;;;;;360.55;145.60;;;-5.50;99.90;;;;;;5099444;28;20084;-53
2024/01/21 00:47:07;;;;;;;348.23;143.32;;;-5.50;99.90;;;;;;5099312;28;20068;-53
2024/01/21 00:49:33;;;;;;;363.15;145.52;;;-5.50;99.90;;;;;;5099315;28;20028;-53
2024/01/21 00:51:59;;;;;;;317.10;136.32;;;-5.50;99.90;;;;;;5099257;28;20032;-53
2024/01/21 00:54:25;;;;;;;330.95;137.55;;;-5.50;99.90;;;;;;5099265;28;20362;-53
2024/01/21 00:56:50;;;;;;;361.08;144.25;;;-5.50;99.90;;;;;;5099168;28;20020;-53
2024/01/21 00:59:16;;;;;;;339.80;138.73;;;-5.50;99.90;;;;;;5099150;28;20020;-53
2024/01/21 01:01:42;;;;;;;356.05;143.35;;;-5.50;99.90;;;;;;5099089;28;20103;-53
2024/01/21 01:04:09;;;;;;;340.48;143.02;;;-5.50;99.90;;;;;;5098986;28;20082;-53
2024/01/21 01:06:34;;;;;;;357.80;139.32;;;-5.50;99.90;;;;;;5098875;28;20036;-53
2024/01/21 01:09:00;;;;;;;337.83;139.23;;;-5.40;99.90;;;;;;5098935;28;20110;-53
2024/01/21 01:11:27;;;;;;;335.70;134.68;;;-5.50;99.90;;;;;;5098907;28;20024;-53
2024/01/21 01:13:53;;;;;;;346.42;136.98;;;-5.50;99.90;;;;;;5098801;28;20035;-53
2024/01/21 01:16:19;;;;;;;344.98;141.45;;;-5.60;99.90;;;;;;5098947;28;20024;-53
2024/01/21 01:18:45;;;;;;;343.88;140.93;;;-5.60;99.90;;;;;;5098531;28;20048;-53
2024/01/21 01:21:11;;;;;;;349.30;142.55;;;-5.60;99.90;;;;;;5098604;28;20024;-53
2024/01/21 01:23:37;;;;;;;360.27;143.10;;;-5.60;99.90;;;;;;5098635;28;20050;-53
2024/01/21 01:26:03;;;;;;;386.42;152.95;;;-5.60;99.90;;;;;;5098660;28;20020;-53
2024/01/21 01:28:31;;;;;;;396.23;157.60;;;-5.70;99.90;;;;;;5098555;28;20048;-53
2024/01/21 01:30:57;;;;;;;407.25;157.75;;;-5.70;99.90;;;;;;5098575;28;20027;-53
2024/01/21 01:33:24;;;;;;;465.48;169.95;;;-5.70;99.90;;;;;;5098476;28;20381;-53
2024/01/21 01:35:50;;;;;;;470.20;176.80;;;-5.70;99.90;;;;;;5098439;28;20093;-53
2024/01/21 01:38:16;;;;;;;523.90;186.95;;;-5.70;99.90;;;;;;5098391;28;20024;-53
2024/01/21 01:40:42;;;;;;;593.20;210.15;;;-5.60;99.90;;;;;;5098427;28;20036;-53
2024/01/21 01:43:09;;;;;;;569.28;203.65;;;-5.70;99.90;;;;;;5098189;28;20059;-53
2024/01/21 01:45:36;;;;;;;506.38;176.57;;;-5.70;99.90;;;;;;5098325;28;20059;-53
2024/01/21 01:48:03;;;;;;;439.13;159.00;;;-5.60;99.90;;;;;;5098216;28;20057;-53
2024/01/21 01:50:31;;;;;;;393.50;150.52;;;-5.70;99.90;;;;;;5097401;28;20465;-53
2024/01/21 01:52:59;;;;;;;368.75;143.43;;;-5.80;99.90;;;;;;5098176;28;20070;-53
2024/01/21 01:55:27;;;;;;;364.80;144.02;;;-5.70;99.90;;;;;;5098132;28;20038;-53
2024/01/21 01:57:53;;;;;;;334.00;136.23;;;-5.70;99.90;;;;;;5097913;28;20032;-53
2024/01/21 02:00:19;;;;;;;334.00;134.32;;;-5.80;99.90;;;;;;5098039;28;20536;-53
2024/01/21 02:02:45;;;;;;;320.83;127.30;;;-5.90;99.90;;;;;;5097795;28;20035;-53
2024/01/21 02:05:10;;;;;;;311.83;126.00;;;-5.80;99.90;;;;;;5097936;28;20032;-53
2024/01/21 02:07:36;;;;;;;292.35;123.32;;;-5.80;99.90;;;;;;5097697;28;20035;-53
2024/01/21 02:10:03;;;;;;;306.35;123.30;;;-5.80;99.90;;;;;;5097830;28;20024;-53
2024/01/21 02:12:29;;;;;;;284.08;119.10;;;-5.90;99.90;;;;;;5097589;28;20386;-53
2024/01/21 02:14:55;;;;;;;301.45;127.38;;;-5.80;99.90;;;;;;5097768;28;20086;-53
2024/01/21 02:17:21;;;;;;;299.55;126.90;;;-5.70;99.90;;;;;;5097659;28;20486;-53
2024/01/21 02:19:47;;;;;;;306.50;124.63;;;-5.80;99.90;;;;;;5097741;28;20035;-53
2024/01/21 02:22:13;;;;;;;298.17;126.43;;;-5.80;99.90;;;;;;5097824;28;20055;-53
2024/01/21 02:24:38;;;;;;;311.95;130.15;;;-5.90;99.90;;;;;;5097478;28;20032;-53
2024/01/21 02:27:04;;;;;;;315.92;129.55;;;-5.90;99.90;;;;;;5097418;28;20050;-53
2024/01/21 02:29:30;;;;;;;278.98;121.88;;;-6.00;99.90;;;;;;5097557;28;20028;-53
2024/01/21 02:31:58;;;;;;;380.95;142.88;;;-6.00;99.90;;;;;;5097412;28;20027;-53
2024/01/21 02:34:24;;;;;;;439.92;157.30;;;-5.90;99.90;;;;;;5097507;28;20036;-53
2024/01/21 02:36:50;;;;;;;403.70;145.80;;;-5.90;99.90;;;;;;5097256;28;20386;-53
2024/01/21 02:39:16;;;;;;;352.92;137.90;;;-5.90;99.90;;;;;;5097137;28;20028;-53
2024/01/21 02:41:42;;;;;;;302.70;125.88;;;-6.00;99.90;;;;;;5097259;28;20173;-53
2024/01/21 02:44:08;;;;;;;276.45;114.50;;;-5.90;99.90;;;;;;5097077;28;20085;-53
2024/01/21 02:46:33;;;;;;;282.65;117.85;;;-5.90;99.90;;;;;;5095341;28;20028;-53
2024/01/21 02:48:59;;;;;;;270.38;112.95;;;-6.00;99.90;;;;;;5097009;28;20466;-53
2024/01/21 02:51:25;;;;;;;281.05;116.57;;;-6.00;99.90;;;;;;5097033;28;20118;-53
2024/01/21 02:53:52;;;;;;;265.55;108.43;;;-6.10;99.90;;;;;;5097047;28;20036;-53
2024/01/21 02:56:22;;;;;;;269.15;112.03;;;-6.20;99.90;;;;;;5096985;28;20034;-53
2024/01/21 02:58:51;;;;;;;255.40;107.95;;;-6.10;99.90;;;;;;5096742;28;20032;-53
2024/01/21 03:01:18;;;;;;;243.60;103.90;;;-6.00;99.90;;;;;;5096243;28;20084;-53
2024/01/21 03:03:44;;;;;;;333.73;130.18;;;-5.80;99.90;;;;;;5096205;28;20085;-53
2024/01/21 03:06:10;;;;;;;409.67;150.27;;;-5.90;99.90;;;;;;5096676;28;20028;-53
2024/01/21 03:08:37;;;;;;;384.13;145.50;;;-5.90;99.90;;;;;;5096523;28;20048;-53
2024/01/21 03:11:03;;;;;;;416.90;155.65;;;-6.00;99.90;;;;;;5096625;28;20091;-53
2024/01/21 03:13:29;;;;;;;360.77;137.65;;;-5.90;99.90;;;;;;5096449;28;20032;-53
2024/01/21 03:15:55;;;;;;;340.13;134.75;;;-6.00;99.90;;;;;;5096405;28;20108;-53
2024/01/21 03:18:21;;;;;;;250.82;107.00;;;-6.00;99.90;;;;;;5096384;28;20039;-53
2024/01/21 03:20:48;;;;;;;244.38;99.45;;;-5.90;99.90;;;;;;5096444;28;20020;-53
2024/01/21 03:23:14;;;;;;;237.57;95.97;;;-5.90;99.90;;;;;;5096876;28;20085;-53
2024/01/21 03:25:40;;;;;;;215.15;90.68;;;-5.80;99.90;;;;;;5096461;28;20128;-53
2024/01/21 03:28:06;;;;;;;229.20;92.88;;;-5.90;99.90;;;;;;5096329;28;20044;-53
2024/01/21 03:30:31;;;;;;;221.32;89.20;;;-5.90;99.90;;;;;;5096062;28;20046;-53
2024/01/21 03:32:57;;;;;;;294.23;112.47;;;-5.80;99.90;;;;;;5096512;28;20488;-53
2024/01/21 03:35:23;;;;;;;305.55;115.57;;;-5.70;99.90;;;;;;5096187;28;20039;-53
2024/01/21 03:37:50;;;;;;;291.33;99.45;;;-5.70;99.90;;;;;;5096150;28;20024;-53
2024/01/21 03:40:16;;;;;;;304.00;102.78;;;-5.60;99.90;;;;;;5096140;28;20031;-53
2024/01/21 03:42:45;;;;;;;282.88;94.95;;;-5.50;99.90;;;;;;5095997;28;20032;-53
2024/01/21 03:45:11;;;;;;;243.70;87.50;;;-5.50;99.90;;;;;;5096121;28;20454;-53
2024/01/21 03:47:38;;;;;;;264.73;91.20;;;-5.40;99.90;;;;;;5096003;28;20103;-53
2024/01/21 03:50:04;;;;;;;256.52;88.82;;;-5.40;99.90;;;;;;5096326;28;20056;-53
2024/01/21 03:52:30;;;;;;;258.10;93.05;;;-5.40;99.90;;;;;;5096007;28;20150;-53
2024/01/21 03:54:56;;;;;;;252.60;83.93;;;-5.30;99.90;;;;;;5095998;28;20063;-53
2024/01/21 03:57:22;;;;;;;224.85;80.70;;;-5.20;99.90;;;;;;5095767;28;20028;-53
2024/01/21 03:59:48;;;;;;;226.48;81.90;;;-5.10;99.90;;;;;;5095702;28;20400;-53
2024/01/21 04:02:14;;;;;;;250.63;94.13;;;-5.10;99.90;;;;;;5095804;28;20032;-53
2024/01/21 04:04:40;;;;;;;243.85;88.28;;;-5.20;99.90;;;;;;5095760;28;20050;-53
2024/01/21 04:07:06;;;;;;;217.25;79.13;;;-5.30;99.90;;;;;;5095654;28;20488;-53
2024/01/21 04:09:31;;;;;;;242.13;81.22;;;-5.20;99.90;;;;;;5095744;28;20053;-53
2024/01/21 04:11:57;;;;;;;247.07;88.38;;;-5.00;99.90;;;;;;5095605;28;20028;-53
2024/01/21 04:14:23;;;;;;;266.95;83.32;;;-5.00;99.90;;;;;;5095224;28;20056;-53
2024/01/21 04:16:49;;;;;;;229.18;82.40;;;-5.00;99.90;;;;;;5095588;28;20107;-53
2024/01/21 04:19:18;;;;;;;200.20;68.72;;;-5.00;99.90;;;;;;5095571;28;20116;-53
2024/01/21 04:21:44;;;;;;;182.15;67.70;;;-5.10;99.90;;;;;;5095841;28;20062;-53
2024/01/21 04:24:10;;;;;;;158.93;60.15;;;-5.00;99.90;;;;;;5095475;28;20051;-53
2024/01/21 04:26:36;;;;;;;172.20;62.92;;;-5.10;99.90;;;;;;5095451;28;20028;-53
2024/01/21 04:29:01;;;;;;;172.15;63.67;;;-4.90;99.90;;;;;;5095541;28;20028;-53
2024/01/21 04:31:27;;;;;;;156.18;58.75;;;-4.80;99.90;;;;;;5095416;28;20063;-53
2024/01/21 04:33:53;;;;;;;148.40;57.65;;;-4.90;99.90;;;;;;5095524;28;20036;-53
2024/01/21 04:36:20;;;;;;;150.50;58.42;;;-4.90;99.90;;;;;;5095464;28;20024;-53
2024/01/21 04:38:46;;;;;;;164.98;60.20;;;-4.90;99.90;;;;;;5095382;28;20039;-53
2024/01/21 04:41:13;;;;;;;164.93;60.83;;;-5.00;99.90;;;;;;5095357;28;20035;-53
2024/01/21 04:43:39;;;;;;;148.13;57.35;;;-4.90;99.90;;;;;;5095291;28;20447;-53
2024/01/21 04:46:06;;;;;;;152.63;58.60;;;-4.90;99.90;;;;;;5095232;28;20531;-53
2024/01/21 04:48:33;;;;;;;154.25;57.72;;;-4.80;99.90;;;;;;5095341;28;20055;-53
2024/01/21 04:50:58;;;;;;;150.82;59.08;;;-4.70;99.90;;;;;;5095290;28;20028;-53
2024/01/21 04:53:25;;;;;;;157.90;60.08;;;-4.70;99.90;;;;;;5095231;28;20568;-53
2024/01/21 04:55:51;;;;;;;160.70;60.25;;;-4.60;99.90;;;;;;5095141;28;20056;-53
2024/01/21 04:58:17;;;;;;;163.02;60.88;;;-4.70;99.90;;;;;;5095243;28;20024;-53
2024/01/21 05:00:42;;;;;;;161.77;59.47;;;-4.70;99.90;;;;;;5095275;28;20035;-53
2024/01/21 05:03:08;;;;;;;163.60;62.95;;;-4.70;99.90;;;;;;5095157;28;20081;-53
2024/01/21 05:05:34;;;;;;;168.57;61.17;;;-4.60;99.90;;;;;;5095235;28;20020;-53
2024/01/21 05:08:00;;;;;;;167.13;61.75;;;-4.60;99.90;;;;;;5095028;28;20047;-53
2024/01/21 05:10:26;;;;;;;147.68;58.10;;;-4.70;99.90;;;;;;5094982;28;20477;-53
2024/01/21 05:12:52;;;;;;;155.77;59.45;;;-4.80;99.90;;;;;;5095144;28;20060;-53
2024/01/21 05:15:18;;;;;;;167.27;63.35;;;-4.80;99.90;;;;;;5095060;28;20024;-53
2024/01/21 05:17:44;;;;;;;150.98;61.47;;;-4.80;99.90;;;;;;5094980;28;20126;-53
2024/01/21 05:20:11;;;;;;;177.63;64.35;;;-4.70;99.90;;;;;;5095010;28;20113;-53
2024/01/21 05:22:37;;;;;;;177.70;62.25;;;-4.90;99.90;;;;;;5094912;28;20028;-53
2024/01/21 05:25:03;;;;;;;173.68;66.88;;;-5.00;99.90;;;;;;5095302;28;20028;-53
2024/01/21 05:27:31;;;;;;;180.45;68.18;;;-5.00;99.90;;;;;;5098620;28;20434;-53
2024/01/21 05:29:57;;;;;;;182.75;71.50;;;-4.90;99.90;;;;;;5098651;28;20066;-53
2024/01/21 05:32:23;;;;;;;189.77;71.13;;;-4.90;99.90;;;;;;5098530;28;20040;-53
2024/01/21 05:34:49;;;;;;;182.85;70.25;;;-4.90;99.90;;;;;;5098606;28;20034;-53
2024/01/21 05:37:15;;;;;;;219.27;74.13;;;-4.80;99.90;;;;;;5098419;28;20468;-53
2024/01/21 05:39:41;;;;;;;246.98;77.18;;;-4.80;99.90;;;;;;5098262;28;20735;-53
2024/01/21 05:42:10;;;;;;;278.92;82.30;;;-4.80;99.90;;;;;;5098433;28;20069;-53
2024/01/21 05:44:36;;;;;;;378.55;96.70;;;-4.80;99.90;;;;;;5098338;28;20024;-53
2024/01/21 05:47:02;;;;;;;322.23;87.90;;;-4.70;99.90;;;;;;5098494;28;20039;-53
2024/01/21 05:49:28;;;;;;;272.70;82.38;;;-4.70;99.90;;;;;;5098213;28;20048;-53
2024/01/21 05:51:54;;;;;;;264.88;79.47;;;-4.70;99.90;;;;;;5098083;28;20103;-53
2024/01/21 05:54:20;;;;;;;224.68;71.65;;;-4.80;99.90;;;;;;5098150;28;20056;-53
2024/01/21 05:56:46;;;;;;;249.30;78.18;;;-4.70;99.90;;;;;;5098349;28;20028;-53
2024/01/21 05:59:16;;;;;;;262.05;76.65;;;-4.70;99.90;;;;;;5098141;28;20408;-53
2024/01/21 06:01:42;;;;;;;255.95;73.55;;;-4.80;99.90;;;;;;5098161;28;20485;-53
2024/01/21 06:04:08;;;;;;;267.40;77.22;;;-4.90;99.90;;;;;;5097990;28;20036;-53
2024/01/21 06:06:34;;;;;;;261.20;78.85;;;-4.90;99.90;;;;;;5097826;28;20024;-53
2024/01/21 06:09:00;;;;;;;284.70;82.97;;;-4.80;99.90;;;;;;5098062;28;20073;-53
2024/01/21 06:11:26;;;;;;;288.48;77.75;;;-4.90;99.90;;;;;;5097972;28;20129;-53
2024/01/21 06:13:52;;;;;;;285.77;82.95;;;-4.90;99.90;;;;;;5098153;28;20229;-53
2024/01/21 06:16:18;;;;;;;294.00;85.18;;;-4.90;99.90;;;;;;5097950;28;20153;-53
2024/01/21 06:18:44;;;;;;;312.33;88.22;;;-5.00;99.90;;;;;;5097544;28;20121;-53
2024/01/21 06:21:09;;;;;;;271.40;80.43;;;-4.90;99.90;;;;;;5097497;28;20028;-53
2024/01/21 06:23:35;;;;;;;278.83;81.07;;;-4.80;99.90;;;;;;5097472;28;20470;-53
2024/01/21 06:26:02;;;;;;;279.30;82.78;;;-4.70;99.90;;;;;;5097585;28;20051;-53
2024/01/21 06:28:28;;;;;;;277.38;85.53;;;-4.70;99.90;;;;;;5097491;28;20347;-53
2024/01/21 06:30:54;;;;;;;337.10;107.00;;;-4.50;99.90;;;;;;5097426;28;20020;-53
2024/01/21 06:33:20;;;;;;;315.63;107.15;;;-4.60;99.90;;;;;;5097519;28;20435;-53
2024/01/21 06:35:46;;;;;;;322.15;105.53;;;-4.70;99.90;;;;;;5096976;28;20035;-53
2024/01/21 06:38:11;;;;;;;328.10;106.85;;;-5.00;99.90;;;;;;5097381;28;20067;-53
2024/01/21 06:40:37;;;;;;;317.15;103.93;;;-5.20;99.90;;;;;;5097238;28;20031;-53
2024/01/21 06:43:03;;;;;;;334.83;115.57;;;-5.50;99.90;;;;;;5097155;28;20024;-53
2024/01/21 06:45:29;;;;;;;331.77;111.47;;;-5.60;99.90;;;;;;5097190;28;20051;-53
2024/01/21 06:47:55;;;;;;;362.55;115.18;;;-5.40;99.90;;;;;;5096957;28;20046;-53
2024/01/21 06:50:21;;;;;;;338.48;105.82;;;-5.30;99.90;;;;;;5096910;28;20016;-53
2024/01/21 06:52:49;;;;;;;322.55;104.30;;;-5.30;99.90;;;;;;5096988;28;20474;-53
2024/01/21 06:55:15;;;;;;;296.15;96.97;;;-5.40;99.90;;;;;;5097069;28;20024;-53
2024/01/21 06:57:41;;;;;;;306.55;100.88;;;-5.40;99.90;;;;;;5096945;28;20539;-53
2024/01/21 07:00:07;;;;;;;360.80;103.82;;;-5.50;99.90;;;;;;5096901;28;20036;-53
2024/01/21 07:02:33;;;;;;;349.58;105.60;;;-5.50;99.90;;;;;;5096627;28;20401;-53
2024/01/21 07:04:59;;;;;;;374.63;117.10;;;-5.40;99.90;;;;;;5096653;28;20052;-53
2024/01/21 07:07:25;;;;;;;383.13;117.93;;;-5.40;99.90;;;;;;5096647;28;20523;-53
2024/01/21 07:09:50;;;;;;;459.27;134.18;;;-5.50;99.90;;;;;;5096683;28;20027;-53
2024/01/21 07:12:16;;;;;;;447.80;135.55;;;-5.40;99.90;;;;;;5096902;28;20378;-53
2024/01/21 07:14:42;;;;;;;448.77;134.52;;;-5.40;99.90;;;;;;5096619;28;20023;-53
2024/01/21 07:17:09;;;;;;;386.85;101.35;;;-5.10;99.90;;;;;;5096409;28;20021;-54
2024/01/21 07:19:35;;;;;;;346.00;90.93;;;-4.90;99.90;;;;;;5096508;28;20397;-53
2024/01/21 07:22:01;;;;;;;355.65;93.28;;;-4.80;99.90;;;;;;5096409;28;20044;-53
2024/01/21 07:24:27;;;;;;;376.33;99.20;;;-4.60;99.90;;;;;;5096371;28;20032;-53
2024/01/21 07:26:53;;;;;;;324.85;91.70;;;-4.40;99.90;;;;;;5096393;28;20045;-53
2024/01/21 07:29:19;;;;;;;247.35;77.50;;;-4.40;99.90;;;;;;5096296;28;20024;-53
2024/01/21 07:31:44;;;;;;;224.88;73.78;;;-4.20;99.90;;;;;;5096418;28;20032;-53
2024/01/21 07:34:10;;;;;;;274.38;84.88;;;-4.40;99.90;;;;;;5096100;28;20081;-53
2024/01/21 07:36:36;;;;;;;246.02;78.63;;;-4.30;99.90;;;;;;5096178;28;20111;-53
2024/01/21 07:39:04;;;;;;;248.10;78.35;;;-3.90;99.90;;;;;;5096185;28;20363;-53
2024/01/21 07:41:31;;;;;;;233.27;77.05;;;-3.70;99.90;;;;;;5096229;28;20012;-53
2024/01/21 07:43:57;;;;;;;224.23;74.05;;;-3.80;99.90;;;;;;5096013;28;20071;-53
2024/01/21 07:46:23;;;;;;;201.95;73.57;;;-3.80;99.90;;;;;;5096094;28;20033;-53
2024/01/21 07:48:49;;;;;;;207.70;74.60;;;-3.70;99.90;;;;;;5095204;28;20490;-53
2024/01/21 07:51:19;;;;;;;216.15;78.50;;;-3.60;99.90;;;;;;5095886;28;20202;-53
2024/01/21 07:53:46;;;;;;;207.50;74.53;;;-3.40;99.90;;;;;;5095947;28;20038;-53
2024/01/21 07:56:14;;;;;;;192.25;69.28;;;-3.30;99.90;;;;;;5095945;28;20035;-53
2024/01/21 07:58:40;;;;;;;189.55;68.78;;;-3.30;99.90;;;;;;5095818;28;20071;-53
2024/01/21 08:01:12;;;;;;;186.95;68.03;;;-3.40;99.90;;;;;;5095870;28;20032;-53
2024/01/21 08:03:39;;;;;;;183.15;70.30;;;-3.30;99.90;;;;;;5095860;28;20051;-53
2024/01/21 08:06:07;;;;;;;172.18;69.15;;;-3.30;99.90;;;;;;5095861;28;20024;-53
2024/01/21 08:08:33;;;;;;;177.15;71.22;;;-3.10;99.90;;;;;;5095653;28;20024;-53
2024/01/21 08:10:59;;;;;;;167.63;69.75;;;-2.90;99.90;;;;;;5095670;28;20032;-53
2024/01/21 08:13:27;;;;;;;157.32;66.38;;;-2.80;99.90;;;;;;5095658;28;20021;-53
2024/01/21 08:15:52;;;;;;;153.07;64.25;;;-2.70;99.90;;;;;;5095529;28;20146;-53
2024/01/21 08:18:19;;;;;;;173.88;67.38;;;-2.90;99.90;;;;;;5095611;28;20107;-53
2024/01/21 08:20:46;;;;;;;169.80;68.40;;;-3.10;99.90;;;;;;5095625;28;20043;-53
2024/01/21 08:23:12;;;;;;;182.05;69.15;;;-2.70;99.90;;;;;;5095570;28;20389;-53
2024/01/21 08:25:38;;;;;;;189.07;74.40;;;-2.50;99.90;;;;;;5095588;28;20024;-53
2024/01/21 08:28:04;;;;;;;176.40;73.93;;;-2.40;99.90;;;;;;5095569;28;20153;-53
2024/01/21 08:30:30;;;;;;;165.40;69.88;;;-1.60;99.90;;;;;;5095453;28;20024;-53
2024/01/21 08:32:56;;;;;;;166.60;69.93;;;-0.60;99.90;;;;;;5095497;28;20030;-53
2024/01/21 08:35:22;;;;;;;171.57;71.68;;;0.00;98.40;;;;;;5095496;28;20032;-53
2024/01/21 08:37:48;;;;;;;172.77;72.03;;;0.70;95.30;;;;;;5095329;28;20032;-53
2024/01/21 08:40:15;;;;;;;149.80;67.25;;;1.30;92.90;;;;;;5095456;28;20035;-53
2024/01/21 08:42:41;;;;;;;155.73;65.63;;;1.80;92.10;;;;;;5095421;28;20103;-53
2024/01/21 08:45:07;;;;;;;260.50;114.40;;;1.30;89.20;;;;;;5095326;28;20039;-53
2024/01/21 08:47:33;;;;;;;266.70;119.28;;;1.30;86.60;;;;;;5095277;28;20032;-53
2024/01/21 08:50:00;;;;;;;260.27;109.28;;;1.30;88.20;;;;;;5095281;28;20111;-54
2024/01/21 08:52:26;;;;;;;269.23;118.63;;;1.30;88.70;;;;;;5095317;28;20309;-54
2024/01/21 08:54:52;;;;;;;285.05;120.20;;;1.30;84.30;;;;;;5095215;28;20047;-53
2024/01/21 08:57:18;;;;;;;282.02;119.38;;;1.10;87.30;;;;;;5095198;28;20016;-53
2024/01/21 08:59:44;;;;;;;274.25;122.40;;;1.50;85.30;;;;;;5096814;28;20016;-53
2024/01/21 09:02:10;;;;;;;280.60;125.25;;;1.70;84.70;;;;;;5099166;28;20024;-54
2024/01/21 09:04:40;;;;;;;269.60;117.68;;;2.70;79.30;;;;;;5098926;28;20032;-54
2024/01/21 09:07:06;;;;;;;215.30;92.95;;;2.90;74.00;;;;;;5099015;28;20117;-54
2024/01/21 09:09:33;;;;;;;257.38;118.90;;;3.20;74.20;;;;;;5098794;28;20451;-54
2024/01/21 09:11:59;;;;;;;266.48;112.85;;;2.70;74.90;;;;;;5098861;28;20545;-53
2024/01/21 09:14:25;;;;;;;253.23;111.18;;;3.20;72.50;;;;;;5099033;28;20024;-54
2024/01/21 09:16:51;;;;;;;257.38;110.05;;;3.40;70.30;;;;;;5098609;28;20108;-54
2024/01/21 09:19:17;;;;;;;261.83;111.38;;;3.30;68.50;;;;;;5099107;28;20059;-54
2024/01/21 09:21:43;;;;;;;261.15;111.78;;;3.20;70.00;;;;;;5098731;28;20035;-54
2024/01/21 09:24:11;;;;;;;256.77;115.95;;;3.30;69.30;;;;;;5098636;28;20046;-54
2024/01/21 09:26:37;;;;;;;252.93;114.00;;;3.50;68.50;;;;;;5098566;28;20099;-54
2024/01/21 09:29:03;;;;;;;245.18;111.25;;;3.20;68.30;;;;;;5098678;28;20044;-54
2024/01/21 09:31:29;;;;;;;258.95;112.07;;;3.30;66.40;;;;;;5098593;28;20024;-54
2024/01/21 09:33:56;;;;;;;255.38;111.20;;;3.20;66.30;;;;;;5098586;28;20127;-54
2024/01/21 09:36:23;;;;;;;236.88;106.93;;;3.20;66.20;;;;;;5098538;28;20075;-54
2024/01/21 09:38:52;;;;;;;238.10;108.68;;;3.40;66.40;;;;;;5098675;28;20028;-54
2024/01/21 09:41:26;;;;;;;242.13;110.28;;;3.70;67.60;;;;;;5098252;28;20394;-54
2024/01/21 09:43:52;;;;;;;253.27;111.35;;;3.90;65.20;;;;;;5098378;28;20158;-54
2024/01/21 09:46:18;;;;;;;235.30;102.40;;;3.80;66.20;;;;;;5098403;28;20071;-54
2024/01/21 09:48:45;;;;;;;222.57;102.93;;;4.30;64.50;;;;;;5098168;28;20020;-54
2024/01/21 09:51:11;;;;;;;225.75;106.20;;;4.60;62.40;;;;;;5098219;28;20032;-54
2024/01/21 09:53:37;;;;;;;230.18;102.45;;;4.20;64.20;;;;;;5098061;28;20050;-54
2024/01/21 09:56:07;;;;;;;220.55;102.05;;;4.60;65.30;;;;;;5098164;28;20036;-54
2024/01/21 09:58:46;;;;;;;221.45;97.82;;;4.80;64.40;;;;;;5098065;28;20063;-54
2024/01/21 10:01:14;;;;;;;217.32;99.32;;;5.80;61.00;;;;;;5098055;28;20116;-54
2024/01/21 10:03:40;;;;;;;226.30;103.40;;;6.20;58.50;;;;;;5097927;28;20111;-54
2024/01/21 10:06:07;;;;;;;221.13;103.35;;;5.70;58.30;;;;;;5097810;28;20071;-54
2024/01/21 10:08:36;;;;;;;248.75;108.88;;;5.60;58.80;;;;;;5097754;28;20031;-54
2024/01/21 10:11:02;;;;;;;225.13;106.97;;;5.60;58.20;;;;;;5097255;28;20027;-54
2024/01/21 10:13:30;;;;;;;227.60;107.30;;;5.50;58.00;;;;;;5097779;28;20032;-54
2024/01/21 10:15:57;;;;;;;219.65;107.93;;;5.50;56.60;;;;;;5097754;28;20034;-54
2024/01/21 10:18:28;;;;;;;223.13;102.72;;;5.30;57.40;;;;;;5097557;28;20036;-54
2024/01/21 10:20:56;;;;;;;214.40;99.53;;;5.30;60.00;;;;;;5097211;28;20036;-54
2024/01/21 10:23:22;;;;;;;219.38;101.63;;;5.50;59.00;;;;;;5097600;28;20551;-54
2024/01/21 10:25:48;;;;;;;224.82;107.63;;;5.80;57.70;;;;;;5097546;28;20028;-54
2024/01/21 10:28:15;;;;;;;214.85;102.03;;;6.10;57.80;;;;;;5097617;28;20024;-54
2024/01/21 10:30:43;;;;;;;232.38;101.70;;;5.90;57.60;;;;;;5096523;28;20020;-54
2024/01/21 10:33:09;;;;;;;209.40;99.22;;;5.90;58.60;;;;;;5097444;28;20024;-54
2024/01/21 10:35:35;;;;;;;214.30;99.97;;;6.00;57.10;;;;;;5097284;28;20107;-54
2024/01/21 10:38:05;;;;;;;217.13;99.07;;;6.10;58.00;;;;;;5097359;28;20079;-54
2024/01/21 10:40:32;;;;;;;212.13;98.53;;;6.90;55.80;;;;;;5097494;28;20031;-54
2024/01/21 10:43:00;;;;;;;234.13;100.53;;;6.40;55.20;;;;;;5097150;28;20024;-54
2024/01/21 10:45:29;;;;;;;199.05;89.03;;;6.30;55.80;;;;;;5097182;28;20363;-54
2024/01/21 10:47:56;;;;;;;213.02;92.55;;;6.80;54.90;;;;;;5095739;28;20036;-54
2024/01/21 10:50:23;;;;;;;198.13;92.53;;;7.10;53.20;;;;;;5097165;28;20454;-54
2024/01/21 10:52:49;;;;;;;204.95;92.95;;;7.30;52.80;;;;;;5097057;28;20036;-54
2024/01/21 10:55:16;;;;;;;185.90;88.00;;;7.70;52.30;;;;;;5097106;28;20036;-54
2024/01/21 10:57:43;;;;;;;189.73;84.40;;;7.00;52.80;;;;;;5096987;28;20027;-54
2024/01/21 11:00:09;;;;;;;201.07;89.72;;;7.10;55.40;;;;;;5096781;28;20028;-54
2024/01/21 11:02:36;;;;;;;179.90;83.07;;;6.60;54.40;;;;;;5096404;28;20117;-54
2024/01/21 11:05:02;;;;;;;179.95;82.00;;;6.40;53.90;;;;;;5096821;28;20035;-54
2024/01/21 11:07:30;;;;;;;191.55;85.57;;;6.80;54.50;;;;;;5096629;28;20111;-54
2024/01/21 11:09:57;;;;;;;204.43;87.18;;;7.00;54.40;;;;;;5096694;28;20024;-54
2024/01/21 11:12:23;;;;;;;191.98;86.05;;;7.10;55.50;;;;;;5096410;28;20480;-54
2024/01/21 11:14:50;;;;;;;198.88;85.95;;;7.30;53.80;;;;;;5097024;28;20462;-54
2024/01/21 11:17:18;;;;;;;186.38;81.38;;;7.60;56.10;;;;;;5096684;28;20055;-54
2024/01/21 11:19:53;;;;;;;176.82;79.50;;;8.00;51.80;;;;;;5096623;28;20455;-54
2024/01/21 11:22:22;;;;;;;193.15;82.78;;;7.20;53.80;;;;;;5095772;28;20032;-54
2024/01/21 11:24:48;;;;;;;169.02;74.65;;;7.90;53.50;;;;;;5096050;28;20020;-54
2024/01/21 11:27:25;;;;;;;176.43;74.05;;;8.50;50.70;;;;;;5096380;28;20170;-54
2024/01/21 11:30:00;;;;;;;162.95;72.28;;;7.90;53.40;;;;;;5096374;28;20107;-54
2024/01/21 11:32:31;;;;;;;171.25;76.93;;;8.00;51.90;;;;;;5096325;28;20382;-54
2024/01/21 11:35:14;;;;;;;148.05;71.72;;;7.90;51.20;;;;;;5096218;28;20020;-54
2024/01/21 11:37:40;;;;;;;142.93;65.80;;;8.00;51.20;;;;;;5096136;28;20288;-55
2024/01/21 11:40:07;;;;;;;145.65;64.10;;;8.70;50.00;;;;;;5096042;28;20039;-54
2024/01/21 11:42:34;;;;;;;142.77;64.40;;;8.60;48.60;;;;;;5095996;28;20024;-54
2024/01/21 11:45:05;;;;;;;158.27;71.57;;;8.50;46.90;;;;;;5096321;28;20060;-54
2024/01/21 11:47:31;;;;;;;119.18;54.80;;;8.30;50.40;;;;;;5095958;28;20493;-54
2024/01/21 11:50:00;;;;;;;101.38;48.35;;;8.50;48.10;;;;;;5095991;28;20028;-55
2024/01/21 11:52:26;;;;;;;123.05;56.47;;;9.00;46.50;;;;;;5095964;28;20097;-54
2024/01/21 11:54:51;;;;;;;115.32;55.03;;;9.00;46.80;;;;;;5095896;28;20036;-54
2024/01/21 11:57:19;;;;;;;116.68;52.55;;;9.30;46.70;;;;;;5095904;28;20458;-54
2024/01/21 11:59:45;;;;;;;109.32;49.40;;;9.50;45.30;;;;;;5095873;28;20028;-54
2024/01/21 12:02:13;;;;;;;125.30;59.25;;;8.60;44.40;;;;;;5095833;28;20031;-54
2024/01/21 12:04:39;;;;;;;147.57;73.45;;;8.80;47.90;;;;;;5095688;28;20080;-54
2024/01/21 12:07:05;;;;;;;139.20;71.20;;;8.80;45.90;;;;;;5095408;28;20070;-54
2024/01/21 12:09:33;;;;;;;141.15;74.70;;;8.70;46.90;;;;;;5095590;28;20036;-54
2024/01/21 12:11:59;;;;;;;154.98;82.00;;;8.80;47.40;;;;;;5095811;28;20032;-54